Time;durP1;ratioP1;P1;durP2;ratioP2;P2;SDS_P1;SDS_P2;PMS_P1;PMS_P2;Temp;Humidity;BMP_temperature;BMP_pressure;BME280_temperature;BME280_humidity;BME280_pressure;Samples;Min_cycle;Max_cycle;Signal;HPM_P1;HPM_P2
2023/02/21 02:14:44;;;;;;;11.52;8.52;;;;;;;4.69;87.39;98541.53;4205293;28;20241;-88
2023/02/21 02:16:52;;;;;;;12.98;8.60;;;;;;;4.68;88.57;98542.47;4209396;28;20766;-87
2023/02/21 02:19:04;;;;;;;12.93;8.35;;;;;;;4.68;88.25;98534.72;4192864;28;20681;-87
2023/02/21 02:21:26;;;;;;;13.20;9.55;;;;;;;4.68;88.79;98539.06;4206285;28;20248;-87
2023/02/21 02:23:56;;;;;;;11.50;7.63;;;;;;;4.66;89.24;98535.66;4204618;28;20579;-87
2023/02/21 02:26:33;;;;;;;13.45;8.57;;;;;;;4.63;88.29;98531.47;4209077;28;20194;-87
2023/02/21 02:28:49;;;;;;;12.23;8.13;;;;;;;4.63;88.70;98535.78;4207930;28;20292;-87
2023/02/21 02:31:34;;;;;;;13.63;8.90;;;;;;;4.62;88.50;98534.94;4205171;28;20272;-86
2023/02/21 02:34:25;;;;;;;14.15;9.05;;;;;;;4.59;88.93;98519.56;4191090;28;20213;-87
2023/02/21 02:36:34;;;;;;;15.23;8.32;;;;;;;4.55;89.14;98522.31;4128251;28;20204;-87
2023/02/21 02:38:46;;;;;;;21.73;9.60;;;;;;;4.55;88.22;98523.16;4188490;28;20218;-87
2023/02/21 02:40:57;;;;;;;14.13;9.13;;;;;;;4.55;88.19;98522.31;4203150;28;20732;-87
2023/02/21 02:43:06;;;;;;;14.90;9.20;;;;;;;4.51;88.93;98519.03;4201318;28;20210;-87
2023/02/21 02:45:14;;;;;;;12.98;8.52;;;;;;;4.55;88.78;98527.50;4197920;28;20200;-87
2023/02/21 02:47:20;;;;;;;16.83;9.50;;;;;;;4.53;88.42;98519.81;4227344;28;20701;-87
2023/02/21 02:49:25;;;;;;;15.02;9.75;;;;;;;4.57;89.96;98521.38;4208586;28;20209;-87
2023/02/21 02:51:30;;;;;;;16.38;8.82;;;;;;;4.53;89.24;98518.97;4188237;28;20236;-87
2023/02/21 02:53:35;;;;;;;13.35;8.75;;;;;;;4.53;88.82;98522.38;4194010;28;20248;-87
2023/02/21 02:55:43;;;;;;;16.58;9.45;;;;;;;4.57;89.81;98528.25;4188065;28;20729;-87
2023/02/21 02:57:47;;;;;;;17.33;9.30;;;;;;;4.52;89.49;98525.84;4207768;28;20212;-87
2023/02/21 02:59:53;;;;;;;12.25;8.20;;;;;;;4.52;89.44;98527.59;4190486;28;20210;-87
2023/02/21 03:02:12;;;;;;;16.00;9.68;;;;;;;4.48;89.39;98521.72;4190993;28;20237;-87
2023/02/21 03:04:32;;;;;;;16.25;9.70;;;;;;;4.49;88.99;98518.22;4203677;28;20201;-88
2023/02/21 03:06:46;;;;;;;10.90;8.68;;;;;;;4.45;90.33;98514.09;4206289;28;20239;-88
2023/02/21 03:08:53;;;;;;;11.38;9.23;;;;;;;4.49;88.84;98518.22;4203349;28;20255;-87
2023/02/21 03:11:02;;;;;;;15.23;9.25;;;;;;;4.47;89.96;98520.03;4191503;28;20210;-87
2023/02/21 03:13:17;;;;;;;16.23;9.60;;;;;;;4.47;90.34;98517.44;4209099;28;20228;-87
2023/02/21 03:15:23;;;;;;;15.43;9.40;;;;;;;4.46;89.04;98520.91;4184494;28;20236;-87
2023/02/21 03:17:28;;;;;;;13.48;8.68;;;;;;;4.40;89.12;98520.31;4186848;28;20233;-88
2023/02/21 03:19:34;;;;;;;15.95;9.07;;;;;;;4.34;87.48;98517.97;4207789;28;20201;-87
2023/02/21 03:21:42;;;;;;;14.32;8.48;;;;;;;4.34;87.93;98521.38;4195194;28;20665;-87
2023/02/21 03:23:48;;;;;;;10.95;8.40;;;;;;;4.32;88.29;98518.00;4188124;28;20226;-87
2023/02/21 03:25:52;;;;;;;16.13;8.85;;;;;;;4.35;87.76;98520.47;4218922;28;20630;-87
2023/02/21 03:27:56;;;;;;;18.05;9.50;;;;;;;4.31;89.24;98520.66;4222178;28;20245;-88
2023/02/21 03:30:04;;;;;;;16.80;9.38;;;;;;;4.30;89.07;98521.53;4200282;28;20311;-88
2023/02/21 03:34:13;;;;;;;14.32;8.65;;;;;;;4.32;89.27;98518.00;4184903;28;20684;-87
2023/02/21 03:36:16;;;;;;;14.27;8.63;;;;;;;4.29;88.86;98512.97;4190714;28;20237;-87
2023/02/21 03:38:21;;;;;;;15.52;8.10;;;;;;;4.27;89.56;98524.25;4190640;28;20568;-87
2023/02/21 03:40:27;;;;;;;14.98;8.90;;;;;;;4.27;89.31;98517.34;4198044;28;20212;-86
2023/02/21 03:42:32;;;;;;;16.73;8.95;;;;;;;4.27;89.21;98517.34;4189235;28;20213;-87
2023/02/21 03:44:35;;;;;;;18.65;8.70;;;;;;;4.20;89.51;98513.31;4189049;28;20210;-90
2023/02/21 03:46:40;;;;;;;14.50;9.43;;;;;;;4.21;90.58;98520.16;4189946;28;20681;-90
2023/02/21 03:48:43;;;;;;;23.60;9.05;;;;;;;4.19;90.28;98513.34;4185771;28;20210;-90
2023/02/21 03:50:54;;;;;;;12.20;8.93;;;;;;;4.20;89.74;98509.06;4203154;28;20200;-90
2023/02/21 03:53:00;;;;;;;13.75;8.88;;;;;;;4.19;88.79;98512.53;4191928;28;20220;-90
2023/02/21 03:55:08;;;;;;;15.52;8.23;;;;;;;4.17;89.74;98512.59;4190993;28;20215;-90
2023/02/21 03:57:11;;;;;;;17.48;8.98;;;;;;;4.18;89.26;98513.41;4192279;28;20201;-90
2023/02/21 03:59:17;;;;;;;13.50;8.10;;;;;;;4.15;88.59;98505.78;4206908;28;20204;-90
2023/02/21 04:01:20;;;;;;;15.23;8.50;;;;;;;4.14;89.19;98504.94;4191781;28;20227;-89
2023/02/21 04:03:23;;;;;;;14.90;8.85;;;;;;;4.16;89.71;98507.47;4201722;28;20209;-90
2023/02/21 04:05:30;;;;;;;14.77;8.60;;;;;;;4.19;89.45;98515.09;4202038;28;20209;-90
2023/02/21 04:07:33;;;;;;;15.57;8.40;;;;;;;4.18;90.83;98518.56;4219985;28;20656;-90
2023/02/21 04:09:37;;;;;;;14.38;8.50;;;;;;;4.16;90.32;98520.38;4190188;28;20297;-90
2023/02/21 04:11:44;;;;;;;16.63;8.80;;;;;;;4.13;89.81;98518.75;4189390;28;20201;-90
2023/02/21 04:13:47;;;;;;;13.73;8.55;;;;;;;4.13;89.43;98512.75;4201727;28;20232;-90
2023/02/21 04:15:51;;;;;;;14.30;8.40;;;;;;;4.10;90.10;98507.69;4190464;28;20689;-89
2023/02/21 04:17:55;;;;;;;13.52;9.57;;;;;;;4.13;90.38;98507.59;4203540;28;20275;-90
2023/02/21 04:19:59;;;;;;;15.95;8.88;;;;;;;4.16;89.96;98512.63;4203639;28;20206;-90
2023/02/21 04:22:02;;;;;;;13.70;8.52;;;;;;;4.15;89.66;98506.66;4191772;28;20193;-90
2023/02/21 04:24:06;;;;;;;19.15;9.55;;;;;;;4.17;90.06;98504.00;4192479;28;20206;-90
2023/02/21 04:26:09;;;;;;;15.50;9.13;;;;;;;4.20;90.95;98515.88;4198654;28;20758;-90
2023/02/21 04:28:19;;;;;;;13.75;8.93;;;;;;;4.22;89.51;98511.53;4189492;28;20220;-90
2023/02/21 04:30:23;;;;;;;18.10;8.40;;;;;;;4.27;89.24;98504.44;4211553;28;20235;-88
2023/02/21 04:32:26;;;;;;;17.30;8.43;;;;;;;4.24;90.03;98503.72;4217139;28;20231;-90
2023/02/21 04:34:31;;;;;;;11.63;7.70;;;;;;;4.23;89.81;98495.13;4196290;28;20217;-89
2023/02/21 04:36:36;;;;;;;14.90;7.53;;;;;;;4.22;89.86;98503.78;4204152;28;20255;-87
2023/02/21 04:38:40;;;;;;;14.77;8.05;;;;;;;4.23;89.56;98507.19;4190553;28;20235;-87
2023/02/21 04:40:43;;;;;;;16.63;7.43;;;;;;;4.21;90.00;98507.25;4207753;28;20209;-88
2023/02/21 04:42:46;;;;;;;12.15;8.30;;;;;;;4.18;89.74;98510.84;4192162;28;20212;-87
2023/02/21 04:44:51;;;;;;;16.15;8.10;;;;;;;4.13;89.22;98505.00;4204586;28;20205;-88
2023/02/21 04:47:03;;;;;;;11.93;7.97;;;;;;;4.09;89.75;98504.28;4189628;28;21034;-88
2023/02/21 04:49:07;;;;;;;17.35;7.65;;;;;;;4.06;89.04;98500.94;4200765;28;20224;-88
2023/02/21 04:51:10;;;;;;;13.05;8.38;;;;;;;4.04;88.45;98511.31;4219990;28;20308;-90
2023/02/21 04:53:17;;;;;;;15.48;8.02;;;;;;;3.96;88.31;98505.59;4188285;28;20229;-90
2023/02/21 04:55:20;;;;;;;12.65;8.13;;;;;;;3.97;88.80;98501.28;4198595;28;20216;-90
2023/02/21 04:57:23;;;;;;;9.30;7.10;;;;;;;3.98;90.07;98497.81;4184854;28;20225;-90
2023/02/21 04:59:26;;;;;;;15.45;8.00;;;;;;;4.03;90.25;98501.94;4204907;28;20213;-90
2023/02/21 05:01:31;;;;;;;11.73;8.95;;;;;;;4.02;88.69;98501.97;4215947;28;20234;-90
2023/02/21 05:03:34;;;;;;;13.30;8.82;;;;;;;4.01;89.77;98508.03;4202961;28;20209;-90
2023/02/21 05:05:37;;;;;;;14.55;8.50;;;;;;;3.99;90.04;98502.91;4191895;28;20201;-88
2023/02/21 05:07:41;;;;;;;20.10;8.65;;;;;;;3.99;90.67;98502.91;4202593;28;20224;-88
2023/02/21 05:09:45;;;;;;;14.82;7.35;;;;;;;3.98;90.31;98500.41;4203528;28;20201;-88
2023/02/21 05:11:48;;;;;;;15.20;9.05;;;;;;;4.00;90.73;98491.72;4206252;28;20786;-88
2023/02/21 05:13:51;;;;;;;18.00;8.30;;;;;;;4.04;90.06;98495.03;4214445;28;20229;-87
2023/02/21 05:15:54;;;;;;;13.05;8.00;;;;;;;4.02;90.33;98489.09;4183762;28;20776;-87
2023/02/21 05:17:59;;;;;;;13.05;8.60;;;;;;;4.01;89.85;98492.53;4203076;28;20229;-87
2023/02/21 05:20:02;;;;;;;15.15;8.05;;;;;;;4.01;90.34;98493.38;4216606;28;20769;-90
2023/02/21 05:22:06;;;;;;;13.77;7.32;;;;;;;4.00;90.89;98488.28;4217861;28;20219;-90
2023/02/21 05:24:09;;;;;;;14.23;7.88;;;;;;;4.01;89.24;98488.22;4193552;28;20316;-90
2023/02/21 05:26:13;;;;;;;11.60;8.40;;;;;;;4.02;89.48;98489.09;4207331;28;20715;-89
2023/02/21 05:28:16;;;;;;;17.42;7.45;;;;;;;4.00;88.73;98486.56;4203849;28;20254;-91
2023/02/21 05:30:22;;;;;;;10.82;7.20;;;;;;;3.97;90.44;98484.09;4220206;28;20291;-90
2023/02/21 05:32:28;;;;;;;18.15;8.07;;;;;;;3.96;89.23;98491.88;4198947;28;20279;-91
2023/02/21 05:34:33;;;;;;;11.68;8.02;;;;;;;3.96;89.87;98489.31;4216452;28;20206;-90
2023/02/21 05:36:36;;;;;;;11.07;7.43;;;;;;;3.96;89.81;98489.31;4187086;28;20230;-90
2023/02/21 05:38:45;;;;;;;12.63;7.35;;;;;;;3.92;90.13;98487.72;4189251;28;20235;-90
2023/02/21 05:40:49;;;;;;;11.07;6.93;;;;;;;3.91;88.92;98488.59;4205375;28;20196;-90
2023/02/21 05:42:52;;;;;;;14.70;8.45;;;;;;;3.86;89.67;98486.22;4222608;28;20208;-87
2023/02/21 05:44:55;;;;;;;15.35;8.13;;;;;;;3.84;89.29;98500.06;4218920;28;20661;-88
2023/02/21 05:46:58;;;;;;;12.50;8.20;;;;;;;3.87;89.94;98500.78;4207696;28;20197;-88
2023/02/21 05:49:02;;;;;;;15.95;9.65;;;;;;;3.86;90.16;98498.25;4186022;28;20194;-88
2023/02/21 05:51:07;;;;;;;11.73;7.80;;;;;;;3.84;90.59;98500.06;4206307;28;20205;-88
2023/02/21 05:53:10;;;;;;;14.65;8.23;;;;;;;3.83;90.51;98508.69;4225761;28;20292;-87
2023/02/21 05:55:13;;;;;;;13.65;7.95;;;;;;;3.81;90.49;98513.06;4189225;28;20237;-88
2023/02/21 05:57:16;;;;;;;18.77;8.77;;;;;;;3.80;89.94;98513.94;4185969;28;20232;-87
2023/02/21 05:59:21;;;;;;;13.73;8.15;;;;;;;3.78;90.16;98515.75;4208399;28;20275;-87
2023/02/21 06:01:24;;;;;;;12.90;8.27;;;;;;;3.76;90.20;98512.38;4204335;28;20728;-87
2023/02/21 06:03:27;;;;;;;12.15;7.80;;;;;;;3.74;89.59;98509.00;4207233;28;20601;-87
2023/02/21 06:05:30;;;;;;;17.63;9.30;;;;;;;3.70;88.96;98502.28;4204369;28;20711;-88
2023/02/21 06:07:35;;;;;;;15.05;7.97;;;;;;;3.73;89.78;98499.59;4192079;28;20244;-88
2023/02/21 06:09:38;;;;;;;16.27;9.50;;;;;;;3.76;89.90;98502.91;4184312;28;20775;-87
2023/02/21 06:11:41;;;;;;;18.10;11.80;;;;;;;3.78;89.18;98513.16;4204599;28;20200;-88
2023/02/21 06:13:45;;;;;;;14.68;9.25;;;;;;;3.78;89.65;98516.56;4202028;28;20256;-87
2023/02/21 06:15:48;;;;;;;14.43;8.30;;;;;;;3.79;89.54;98518.28;4202300;28;20213;-88
2023/02/21 06:17:51;;;;;;;17.40;9.57;;;;;;;3.79;90.07;98515.69;4196038;28;20826;-89
2023/02/21 06:19:56;;;;;;;12.25;8.32;;;;;;;3.80;89.88;98506.22;4189315;28;20198;-90
2023/02/21 06:21:59;;;;;;;11.93;8.63;;;;;;;3.81;89.55;98510.47;4202381;28;20288;-88
2023/02/21 06:24:04;;;;;;;14.10;7.90;;;;;;;3.81;89.78;98507.91;4191777;28;20212;-88
2023/02/21 06:26:07;;;;;;;17.73;11.05;;;;;;;3.81;89.28;98510.47;4195971;28;20674;-88
2023/02/21 06:28:11;;;;;;;17.25;8.80;;;;;;;3.80;89.96;98508.78;4203634;28;20225;-88
2023/02/21 06:30:15;;;;;;;14.40;8.43;;;;;;;3.82;89.54;98512.19;4199362;28;20212;-88
2023/02/21 06:32:18;;;;;;;13.50;8.10;;;;;;;3.83;89.61;98506.09;4202815;28;20259;-88
2023/02/21 06:34:22;;;;;;;14.65;8.40;;;;;;;3.83;89.91;98506.09;4218254;28;20725;-89
2023/02/21 06:36:27;;;;;;;11.93;7.18;;;;;;;3.85;89.84;98506.91;4191088;28;20288;-88
2023/02/21 06:38:30;;;;;;;16.92;8.23;;;;;;;3.87;88.88;98508.53;4207941;28;20308;-88
2023/02/21 06:40:34;;;;;;;9.77;7.68;;;;;;;3.93;89.54;98510.88;4186546;28;20745;-89
2023/02/21 06:42:37;;;;;;;15.00;8.10;;;;;;;4.02;90.72;98509.72;4205683;28;20213;-89
2023/02/21 06:44:40;;;;;;;12.45;7.85;;;;;;;4.12;89.87;98509.34;4223031;28;20253;-89
2023/02/21 06:46:43;;;;;;;18.45;7.70;;;;;;;4.23;90.84;98515.78;4192315;28;20224;-89
2023/02/21 06:48:47;;;;;;;12.90;8.45;;;;;;;4.39;89.09;98523.78;4185733;28;20262;-88
2023/02/21 06:50:50;;;;;;;12.70;7.70;;;;;;;4.53;89.62;98519.81;4205446;28;20591;-89
2023/02/21 06:52:53;;;;;;;11.95;8.00;;;;;;;4.55;88.63;98512.81;4192103;28;20265;-89
2023/02/21 06:54:56;;;;;;;13.35;8.40;;;;;;;4.42;86.76;98516.78;4193905;28;20339;-88
2023/02/21 06:57:04;;;;;;;11.10;7.80;;;;;;;4.32;86.28;98514.59;4210134;28;20197;-89
2023/02/21 06:59:07;;;;;;;11.57;7.70;;;;;;;4.27;86.20;98513.94;4191309;28;20200;-88
2023/02/21 07:01:10;;;;;;;15.68;9.20;;;;;;;4.32;86.90;98515.44;4202606;28;20218;-88
2023/02/21 07:03:14;;;;;;;12.25;8.52;;;;;;;4.46;86.56;98514.94;4202594;28;21030;-88
2023/02/21 07:05:17;;;;;;;15.07;10.38;;;;;;;4.61;87.42;98519.50;4215650;28;20227;-89
2023/02/21 07:07:20;;;;;;;14.15;9.00;;;;;;;4.73;88.10;98528.44;4194650;28;20211;-88
2023/02/21 07:09:23;;;;;;;16.02;8.90;;;;;;;4.85;86.90;98520.22;4208476;28;20196;-89
2023/02/21 07:11:27;;;;;;;15.30;9.93;;;;;;;5.04;85.78;98528.97;4203155;28;20777;-88
2023/02/21 07:13:32;;;;;;;13.20;9.60;;;;;;;5.14;86.24;98520.78;4203635;28;20665;-88
2023/02/21 07:15:35;;;;;;;16.10;8.38;;;;;;;5.28;85.76;98523.66;4203664;28;20204;-88
2023/02/21 07:17:38;;;;;;;13.40;9.43;;;;;;;5.44;86.64;98529.88;4217872;28;20387;-88
2023/02/21 07:19:42;;;;;;;18.08;9.80;;;;;;;5.67;86.10;98529.75;4205834;28;20594;-88
2023/02/21 07:21:46;;;;;;;15.32;8.65;;;;;;;5.88;85.43;98537.47;4206205;28;20735;-88
2023/02/21 07:23:49;;;;;;;13.93;8.20;;;;;;;6.09;85.70;98539.97;4217598;28;20225;-88
2023/02/21 07:25:52;;;;;;;12.95;7.65;;;;;;;6.22;84.95;98540.28;4220049;28;20250;-89
2023/02/21 07:27:55;;;;;;;12.45;7.68;;;;;;;6.35;84.89;98542.25;4200737;28;20206;-88
2023/02/21 07:30:00;;;;;;;16.13;9.15;;;;;;;6.48;84.00;98556.34;4198287;28;20240;-89
2023/02/21 07:32:03;;;;;;;13.45;8.50;;;;;;;6.66;83.89;98556.38;4188585;28;20305;-89
2023/02/21 07:34:06;;;;;;;12.07;8.20;;;;;;;6.80;83.54;98556.56;4202678;28;20216;-88
2023/02/21 07:36:09;;;;;;;12.35;7.47;;;;;;;6.88;82.58;98558.81;4215524;28;20631;-88
2023/02/21 07:38:20;;;;;;;17.40;8.90;;;;;;;6.98;83.95;98558.31;4196279;28;20225;-89
2023/02/21 07:40:23;;;;;;;13.68;8.60;;;;;;;7.04;82.12;98560.63;4221640;28;20200;-88
2023/02/21 07:42:26;;;;;;;13.93;8.00;;;;;;;7.08;81.45;98564.72;4182927;28;20212;-89
2023/02/21 07:44:29;;;;;;;12.10;7.85;;;;;;;7.19;81.98;98568.50;4206590;28;20211;-89
2023/02/21 07:46:34;;;;;;;11.90;7.80;;;;;;;7.29;81.30;98563.72;4201274;28;20327;-89
2023/02/21 07:48:37;;;;;;;12.63;7.65;;;;;;;7.32;81.16;98560.97;4214006;28;20198;-89
2023/02/21 07:50:40;;;;;;;12.52;7.72;;;;;;;7.31;81.16;98562.75;4192547;28;20233;-89
2023/02/21 07:52:45;;;;;;;11.75;8.55;;;;;;;7.48;81.41;98567.94;4205309;28;20916;-89
2023/02/21 07:54:49;;;;;;;14.25;8.90;;;;;;;7.63;80.79;98565.44;4188778;28;20543;-88
2023/02/21 07:56:52;;;;;;;15.70;8.93;;;;;;;7.76;80.22;98560.50;4200561;28;20201;-89
2023/02/21 07:58:55;;;;;;;13.40;9.35;;;;;;;7.90;79.44;98565.84;4206286;28;20217;-89
2023/02/21 08:00:58;;;;;;;13.45;8.27;;;;;;;8.10;81.48;98562.16;4204738;28;20593;-88
2023/02/21 08:03:03;;;;;;;14.15;8.25;;;;;;;8.25;82.93;98568.34;4206925;28;20212;-89
2023/02/21 08:05:06;;;;;;;11.65;8.15;;;;;;;8.36;82.41;98560.84;4204764;28;20397;-90
2023/02/21 08:07:10;;;;;;;16.85;8.27;;;;;;;8.47;82.09;98565.38;4191157;28;20206;-89
2023/02/21 08:09:13;;;;;;;11.90;9.05;;;;;;;8.60;80.29;98557.78;4206230;28;20206;-89
2023/02/21 08:11:18;;;;;;;15.13;7.90;;;;;;;8.78;81.64;98567.19;4201251;28;20291;-89
2023/02/21 08:13:21;;;;;;;13.70;8.07;;;;;;;8.91;79.66;98568.22;4204856;28;20223;-89
2023/02/21 08:15:24;;;;;;;12.07;8.10;;;;;;;9.08;80.54;98567.25;4206418;28;20215;-88
2023/02/21 08:17:27;;;;;;;15.82;8.68;;;;;;;9.22;80.02;98572.50;4192446;28;20692;-89
2023/02/21 08:19:32;;;;;;;13.50;8.93;;;;;;;9.36;80.77;98576.97;4200210;28;20255;-89
2023/02/21 08:21:35;;;;;;;15.45;10.27;;;;;;;9.45;79.70;98580.72;4216706;28;20687;-89
2023/02/21 08:23:38;;;;;;;15.43;8.88;;;;;;;9.57;78.02;98584.41;4194544;28;20288;-89
2023/02/21 08:25:41;;;;;;;14.27;7.95;;;;;;;9.67;77.31;98588.19;4209186;28;20295;-89
2023/02/21 08:27:45;;;;;;;18.23;7.53;;;;;;;9.70;78.33;98588.00;4199031;28;20299;-90
2023/02/21 08:29:50;;;;;;;9.90;7.15;;;;;;;9.82;77.50;98576.84;4218564;28;20708;-88
2023/02/21 08:31:53;;;;;;;9.70;7.32;;;;;;;9.91;77.95;98587.59;4206820;28;20204;-89
2023/02/21 08:33:56;;;;;;;8.27;7.20;;;;;;;10.00;77.47;98590.53;4202751;28;20234;-89
2023/02/21 08:36:00;;;;;;;12.88;7.40;;;;;;;10.09;76.64;98582.19;4195487;28;20212;-89
2023/02/21 08:38:04;;;;;;;13.05;7.70;;;;;;;10.15;76.44;98586.19;4219301;28;20753;-89
2023/02/21 08:40:07;;;;;;;10.00;7.60;;;;;;;10.22;77.72;98587.50;4216317;28;21230;-89
2023/02/21 08:42:11;;;;;;;9.40;6.72;;;;;;;10.31;78.59;98589.56;4193211;28;20221;-89
2023/02/21 08:44:16;;;;;;;12.50;7.00;;;;;;;10.41;77.74;98583.72;4188936;28;20311;-89
2023/02/21 08:46:20;;;;;;;9.15;6.25;;;;;;;10.49;77.53;98586.72;4203718;28;21120;-88
2023/02/21 08:48:23;;;;;;;10.20;7.05;;;;;;;10.58;76.33;98584.38;4219811;28;20240;-89
2023/02/21 08:50:27;;;;;;;12.27;7.82;;;;;;;10.56;75.78;98588.84;4200528;28;20209;-89
2023/02/21 08:52:32;;;;;;;10.68;8.32;;;;;;;10.64;76.58;98583.19;4214669;28;20301;-89
2023/02/21 08:54:36;;;;;;;18.52;9.43;;;;;;;10.70;76.18;98580.19;4199985;28;20212;-89
2023/02/21 08:56:40;;;;;;;20.08;10.73;;;;;;;10.79;76.26;98587.47;4192306;28;20209;-89
2023/02/21 08:58:43;;;;;;;21.02;13.15;;;;;;;10.81;75.69;98583.84;4200921;28;20223;-90
2023/02/21 09:00:46;;;;;;;23.08;12.20;;;;;;;10.92;75.48;98592.66;4216020;28;20692;-89
2023/02/21 09:02:49;;;;;;;20.45;12.25;;;;;;;11.08;75.93;98590.78;4199973;28;20196;-89
2023/02/21 09:04:53;;;;;;;17.03;10.30;;;;;;;11.25;76.56;98597.56;4218094;28;20254;-89
2023/02/21 09:06:56;;;;;;;13.07;8.93;;;;;;;11.43;78.42;98589.41;4216442;28;20619;-89
2023/02/21 09:09:01;;;;;;;16.02;9.77;;;;;;;11.60;77.79;98595.25;4190394;28;20623;-90
2023/02/21 09:11:04;;;;;;;16.73;10.50;;;;;;;11.72;78.83;98593.63;4209760;28;20223;-89
2023/02/21 09:13:08;;;;;;;15.23;9.83;;;;;;;11.85;79.83;98588.34;4218566;28;20660;-89
2023/02/21 09:15:11;;;;;;;13.53;10.33;;;;;;;11.98;77.31;98594.44;4209515;28;20657;-90
2023/02/21 09:17:14;;;;;;;16.47;10.23;;;;;;;12.08;78.08;98590.28;4203963;28;20639;-90
2023/02/21 09:19:17;;;;;;;18.07;11.70;;;;;;;12.24;77.18;98590.94;4223837;28;20746;-89
2023/02/21 09:21:20;;;;;;;16.00;10.10;;;;;;;12.40;78.45;98596.78;4203661;28;20632;-89
2023/02/21 09:23:25;;;;;;;17.33;9.83;;;;;;;12.56;76.84;98592.22;4222905;28;20636;-89
2023/02/21 09:25:29;;;;;;;13.53;9.50;;;;;;;12.73;76.85;98583.09;4196545;28;20631;-89
2023/02/21 09:27:38;;;;;;;15.63;9.73;;;;;;;12.92;76.29;98594.00;4193668;28;20789;-89
2023/02/21 09:29:41;;;;;;;13.07;7.13;;;;;;;13.07;74.92;98590.31;4190565;28;21026;-89
2023/02/21 09:31:50;;;;;;;9.20;6.10;;;;;;;13.24;72.86;98593.44;4218474;28;21017;-90
2023/02/21 09:33:54;;;;;;;7.10;5.10;;;;;;;13.41;70.30;98589.59;4189016;28;20667;-90
2023/02/21 09:35:57;;;;;;;8.53;5.63;;;;;;;13.56;71.88;98597.19;4192031;28;20665;-90
2023/02/21 09:38:01;;;;;;;7.63;4.73;;;;;;;13.65;70.20;98589.50;4190387;28;21005;-89
2023/02/21 09:40:07;;;;;;;7.20;4.60;;;;;;;13.81;70.42;98592.66;4193688;28;20647;-89
2023/02/21 09:42:14;;;;;;;6.33;5.53;;;;;;;13.87;69.91;98586.97;4192313;28;20627;-89
2023/02/21 09:44:20;;;;;;;9.93;5.57;;;;;;;13.94;70.44;98584.75;4222799;27;20670;-89
2023/02/21 09:46:31;;;;;;;7.77;5.53;;;;;;;14.05;71.82;98582.19;4205340;28;20730;-89
2023/02/21 09:48:34;;;;;;;8.53;5.87;;;;;;;14.16;69.41;98585.69;4203630;28;20639;-89
2023/02/21 09:50:42;;;;;;;9.00;6.00;;;;;;;14.25;69.53;98590.25;4205887;28;20712;-90
2023/02/21 09:52:46;;;;;;;9.70;5.60;;;;;;;14.32;69.38;98583.59;4199910;28;20661;-88
2023/02/21 09:54:53;;;;;;;6.30;5.33;;;;;;;14.37;69.87;98581.44;4204688;28;21295;-88
2023/02/21 09:56:58;;;;;;;8.63;5.87;;;;;;;14.36;69.15;98580.63;4207105;28;20620;-89
2023/02/21 09:59:03;;;;;;;9.25;6.10;;;;;;;14.35;66.15;98591.25;4210933;28;20735;-89
2023/02/21 10:01:25;;;;;;;12.27;7.10;;;;;;;14.43;69.17;98588.84;4208688;28;20247;-90
2023/02/21 10:03:44;;;;;;;8.37;6.00;;;;;;;14.50;68.72;98587.47;4223231;28;20665;-88
2023/02/21 10:05:52;;;;;;;8.93;6.00;;;;;;;14.58;66.77;98585.06;4209348;28;20671;-87
2023/02/21 10:07:59;;;;;;;8.17;6.57;;;;;;;14.68;68.21;98587.72;4199579;28;20628;-87
2023/02/21 10:10:08;;;;;;;7.80;6.30;;;;;;;14.74;67.77;98584.59;4221218;28;20636;-87
2023/02/21 10:12:20;;;;;;;14.10;7.77;;;;;;;14.84;68.65;98596.09;4213019;28;20640;-88
2023/02/21 10:14:29;;;;;;;8.80;6.30;;;;;;;14.92;67.00;98585.81;4187823;28;20665;-90
2023/02/21 10:16:34;;;;;;;11.47;7.50;;;;;;;14.94;67.16;98588.31;4185650;28;20686;-88
2023/02/21 10:18:40;;;;;;;10.57;6.53;;;;;;;14.91;67.64;98585.94;4204715;28;20635;-88
2023/02/21 10:20:47;;;;;;;12.93;7.53;;;;;;;14.97;67.89;98590.72;4184972;28;20669;-88
2023/02/21 10:22:50;;;;;;;9.20;7.40;;;;;;;14.93;65.85;98589.28;4204808;28;20688;-88
2023/02/21 10:24:54;;;;;;;10.30;7.30;;;;;;;14.92;67.41;98588.44;4197415;28;20737;-88
2023/02/21 10:27:01;;;;;;;10.50;7.17;;;;;;;14.89;65.75;98583.44;4221724;28;20617;-88
2023/02/21 10:29:07;;;;;;;10.47;7.23;;;;;;;14.88;66.90;98580.91;4203169;28;20725;-88
2023/02/21 10:31:17;;;;;;;9.60;7.37;;;;;;;14.88;66.14;98579.13;4209626;28;20697;-88
2023/02/21 10:33:21;;;;;;;11.10;7.47;;;;;;;14.90;64.06;98579.84;4201941;28;20633;-87
2023/02/21 10:35:24;;;;;;;9.03;7.07;;;;;;;14.94;65.31;98583.06;4197597;28;20647;-88
2023/02/21 10:37:37;;;;;;;10.30;6.60;;;;;;;15.07;64.91;98586.44;4208435;28;20618;-88
2023/02/21 10:39:45;;;;;;;9.90;7.30;;;;;;;15.12;63.79;98587.72;4206753;28;21301;-88
2023/02/21 10:41:48;;;;;;;15.47;8.00;;;;;;;15.15;63.82;98582.22;4203060;28;20706;-87
2023/02/21 10:43:54;;;;;;;8.90;6.47;;;;;;;15.22;64.80;98580.84;4195037;28;20652;-88
2023/02/21 10:46:01;;;;;;;10.10;6.30;;;;;;;15.34;67.90;98585.13;4221476;28;20623;-88
2023/02/21 10:48:07;;;;;;;12.57;6.60;;;;;;;15.29;64.48;98580.22;4194218;28;20752;-88
2023/02/21 10:50:11;;;;;;;10.63;7.10;;;;;;;15.33;63.72;98573.75;4224092;28;21014;-88
2023/02/21 10:52:16;;;;;;;14.13;6.97;;;;;;;15.39;62.89;98572.44;4203133;28;20629;-88
2023/02/21 10:54:21;;;;;;;11.07;6.90;;;;;;;15.45;62.06;98574.56;4184270;28;20627;-88
2023/02/21 10:56:27;;;;;;;9.73;7.30;;;;;;;15.44;64.96;98572.91;4202117;28;20661;-88
2023/02/21 10:58:30;;;;;;;9.77;7.13;;;;;;;15.40;64.22;98574.94;4213362;28;20643;-88
2023/02/21 11:00:36;;;;;;;8.93;6.20;;;;;;;15.38;64.63;98570.75;4197272;28;20689;-88
2023/02/21 11:02:40;;;;;;;10.93;6.30;;;;;;;15.41;63.96;98562.63;4192840;28;21010;-88
2023/02/21 11:04:54;;;;;;;9.33;7.13;;;;;;;15.43;65.00;98563.34;4197024;28;21040;-88
2023/02/21 11:07:00;;;;;;;10.30;6.70;;;;;;;15.49;63.63;98562.88;4190975;28;20630;-88
2023/02/21 11:09:30;;;;;;;9.40;6.53;;;;;;;15.51;62.22;98558.31;4205370;28;20721;-88
2023/02/21 11:11:37;;;;;;;12.30;6.07;;;;;;;15.55;62.33;98554.50;4207294;28;20827;-88
2023/02/21 11:13:40;;;;;;;11.50;6.33;;;;;;;15.57;61.21;98548.97;4208618;28;20662;-88
2023/02/21 11:15:43;;;;;;;13.00;6.70;;;;;;;15.58;63.30;98544.53;4184647;28;20728;-87
2023/02/21 11:18:03;;;;;;;10.03;6.73;;;;;;;15.63;65.57;98537.94;4206817;28;20724;-88
2023/02/21 11:20:17;;;;;;;10.13;6.43;;;;;;;15.64;63.82;98542.25;4197027;28;20623;-88
2023/02/21 11:22:24;;;;;;;11.07;7.57;;;;;;;15.68;62.55;98532.31;4206525;28;21136;-89
2023/02/21 11:24:29;;;;;;;8.93;6.33;;;;;;;15.71;62.97;98526.78;4206135;28;20630;-88
2023/02/21 11:26:37;;;;;;;8.57;6.23;;;;;;;15.73;64.16;98523.09;4212183;28;20633;-89
2023/02/21 11:28:43;;;;;;;10.77;7.20;;;;;;;15.70;61.83;98514.63;4219687;28;21195;-88
2023/02/21 11:30:50;;;;;;;9.20;5.87;;;;;;;15.70;62.52;98520.72;4202522;28;20629;-88
2023/02/21 11:32:56;;;;;;;10.80;6.30;;;;;;;15.75;62.51;98517.69;4206378;28;21007;-88
2023/02/21 11:35:04;;;;;;;9.70;5.90;;;;;;;15.67;60.95;98506.97;4206812;28;20717;-88
2023/02/21 11:37:08;;;;;;;12.20;5.80;;;;;;;15.66;61.24;98508.75;4209005;28;21239;-88
2023/02/21 11:39:16;;;;;;;11.00;6.50;;;;;;;15.64;62.12;98505.44;4187848;28;20643;-89
2023/02/21 11:41:24;;;;;;;8.60;6.43;;;;;;;15.69;62.43;98503.25;4218671;28;20663;-88
2023/02/21 11:43:28;;;;;;;8.93;6.07;;;;;;;15.68;63.55;98500.75;4199854;28;20688;-88
2023/02/21 11:45:33;;;;;;;13.07;7.03;;;;;;;15.66;61.71;98487.72;4193090;28;20712;-88
2023/02/21 11:47:41;;;;;;;10.60;6.67;;;;;;;15.63;61.64;98482.72;4190537;28;20651;-88
2023/02/21 11:49:51;;;;;;;10.17;7.00;;;;;;;15.61;62.08;98478.56;4193192;28;20632;-89
2023/02/21 11:51:57;;;;;;;9.63;6.60;;;;;;;15.61;62.13;98484.63;4189883;28;20669;-88
2023/02/21 11:54:00;;;;;;;8.03;5.73;;;;;;;15.61;62.51;98474.13;4207864;28;20614;-88
2023/02/21 11:56:11;;;;;;;11.73;6.90;;;;;;;15.63;63.40;98469.56;4207040;28;20658;-88
2023/02/21 11:58:19;;;;;;;10.23;6.57;;;;;;;15.62;60.86;98459.16;4223362;28;20690;-88
2023/02/21 12:00:27;;;;;;;8.83;6.20;;;;;;;15.62;63.57;98462.66;4204265;28;20625;-89
2023/02/21 12:02:58;;;;;;;9.20;6.47;;;;;;;15.63;62.57;98459.03;4198765;28;20664;-89
2023/02/21 12:05:11;;;;;;;8.00;5.60;;;;;;;15.60;62.31;98450.59;4190532;28;20681;-88
2023/02/21 12:07:17;;;;;;;9.27;6.13;;;;;;;15.57;62.38;98449.06;4217454;28;20663;-88